createdAt,value
2019-06-25T00:00:36.287Z,20.35
2019-06-25T00:01:35.785Z,20.37
2019-06-25T00:02:35.771Z,20.38
2019-06-25T00:03:35.766Z,20.35
2019-06-25T00:04:35.753Z,20.31
2019-06-25T00:05:35.794Z,20.27
2019-06-25T00:06:36.627Z,20.33
2019-06-25T00:07:35.736Z,20.19
2019-06-25T00:08:35.715Z,20.23
2019-06-25T00:09:35.711Z,20.19
2019-06-25T00:10:35.693Z,20.22
2019-06-25T00:11:35.694Z,20.19
2019-06-25T00:12:36.155Z,20.17
2019-06-25T00:13:35.675Z,20.20
2019-06-25T00:14:35.660Z,20.13
2019-06-25T00:15:35.643Z,20.13
2019-06-25T00:16:35.651Z,20.22
2019-06-25T00:17:35.636Z,20.10
2019-06-25T00:18:35.977Z,20.10
2019-06-25T00:19:35.605Z,20.07
2019-06-25T00:20:35.618Z,19.95
2019-06-25T00:21:35.583Z,20.13
2019-06-25T00:22:35.615Z,20.02
2019-06-25T00:23:35.619Z,19.95
2019-06-25T00:24:35.962Z,19.92
2019-06-25T00:25:35.557Z,19.90
2019-06-25T00:26:35.548Z,19.89
2019-06-25T00:27:35.556Z,20.00
2019-06-25T00:28:35.534Z,19.98
2019-06-25T00:29:35.565Z,19.92
2019-06-25T00:30:35.943Z,19.95
2019-06-25T00:31:35.534Z,19.85
2019-06-25T00:32:35.496Z,19.83
2019-06-25T00:33:35.504Z,19.83
2019-06-25T00:34:35.460Z,19.86
2019-06-25T00:35:35.467Z,19.78
2019-06-25T00:36:35.800Z,19.79
2019-06-25T00:37:35.448Z,19.68
2019-06-25T00:38:35.443Z,19.78
2019-06-25T00:39:35.419Z,19.78
2019-06-25T00:40:35.407Z,19.68
2019-06-25T00:41:35.420Z,19.75
2019-06-25T00:42:35.901Z,19.78
2019-06-25T00:43:35.387Z,19.79
2019-06-25T00:44:35.365Z,19.65
2019-06-25T00:45:35.376Z,19.83
2019-06-25T00:46:35.346Z,19.75
2019-06-25T00:47:35.349Z,19.78
2019-06-25T00:48:35.796Z,19.79
2019-06-25T00:49:35.318Z,19.85
2019-06-25T00:50:35.331Z,19.86
2019-06-25T00:51:35.385Z,19.85
2019-06-25T00:52:35.303Z,19.97
2019-06-25T00:53:35.636Z,19.89
2019-06-25T00:54:35.267Z,20.05
2019-06-25T00:55:35.280Z,20.07
2019-06-25T00:56:35.262Z,19.95
2019-06-25T00:57:35.245Z,20.04
2019-06-25T00:58:35.645Z,20.10
2019-06-25T00:59:35.222Z,19.97
2019-06-25T01:00:35.225Z,20.05
2019-06-25T01:01:35.214Z,19.92
2019-06-25T01:02:35.173Z,19.90
2019-06-25T01:03:35.798Z,19.83
2019-06-25T01:04:35.192Z,19.82
2019-06-25T01:05:35.150Z,19.80
2019-06-25T01:06:35.163Z,19.80
2019-06-25T01:07:35.158Z,19.80
2019-06-25T01:08:35.183Z,19.78
2019-06-25T01:09:37.845Z,19.75
2019-06-25T01:10:35.123Z,19.64
2019-06-25T01:11:35.088Z,19.79
2019-06-25T01:12:35.103Z,19.71
2019-06-25T01:13:35.081Z,19.72
2019-06-25T01:14:35.794Z,19.72
2019-06-25T01:15:35.065Z,19.75
2019-06-25T01:16:35.057Z,19.61
2019-06-25T01:17:35.039Z,19.65
2019-06-25T01:18:35.042Z,19.65
2019-06-25T01:19:35.054Z,19.65
2019-06-25T01:20:35.599Z,19.67
2019-06-25T01:21:35.020Z,19.64
2019-06-25T01:22:35.009Z,19.65
2019-06-25T01:23:34.983Z,19.65
2019-06-25T01:24:34.977Z,19.64
2019-06-25T01:25:35.005Z,19.68
2019-06-25T01:26:35.659Z,19.64
2019-06-25T01:27:34.948Z,19.64
2019-06-25T01:28:34.983Z,19.62
2019-06-25T01:29:34.929Z,19.67
2019-06-25T01:30:34.913Z,19.62
2019-06-25T01:31:34.910Z,19.68
2019-06-25T01:32:35.346Z,19.75
2019-06-25T01:33:34.883Z,19.72
2019-06-25T01:34:34.872Z,19.65
2019-06-25T01:35:34.864Z,19.67
2019-06-25T01:36:34.864Z,19.61
2019-06-25T01:37:34.838Z,19.65
2019-06-25T01:38:35.530Z,19.65
2019-06-25T01:39:34.823Z,19.65
2019-06-25T01:40:34.819Z,19.65
2019-06-25T01:41:34.799Z,19.68
2019-06-25T01:42:34.785Z,19.61
2019-06-25T01:43:34.825Z,19.65
2019-06-25T01:44:35.535Z,19.61
2019-06-25T01:45:34.795Z,19.61
2019-06-25T01:46:34.758Z,19.68
2019-06-25T01:47:34.751Z,19.70
2019-06-25T01:48:34.718Z,19.65
2019-06-25T01:49:34.725Z,19.61
2019-06-25T01:50:35.055Z,19.60
2019-06-25T01:51:34.696Z,19.61
2019-06-25T01:52:34.693Z,19.65
2019-06-25T01:53:34.689Z,19.62
2019-06-25T01:54:34.683Z,19.53
2019-06-25T01:55:34.669Z,19.64
2019-06-25T01:56:35.167Z,19.57
2019-06-25T01:57:34.649Z,19.58
2019-06-25T01:58:34.623Z,19.58
2019-06-25T01:59:34.625Z,19.60
2019-06-25T02:00:44.269Z,19.52
2019-06-25T02:01:34.614Z,19.50
2019-06-25T02:02:35.144Z,19.60
2019-06-25T02:03:34.629Z,19.61
2019-06-25T02:04:34.557Z,19.67
2019-06-25T02:05:34.565Z,19.64
2019-06-25T02:06:34.542Z,19.58
2019-06-25T02:07:34.543Z,19.50
2019-06-25T02:08:34.930Z,19.53
2019-06-25T02:09:34.526Z,19.58
2019-06-25T02:10:34.499Z,19.58
2019-06-25T02:11:34.533Z,19.60
2019-06-25T02:12:34.472Z,19.55
2019-06-25T02:13:34.476Z,19.57
2019-06-25T02:14:34.816Z,19.53
2019-06-25T02:15:34.463Z,19.50
2019-06-25T02:16:34.451Z,19.55
2019-06-25T02:17:34.440Z,19.53
2019-06-25T02:18:34.425Z,19.53
2019-06-25T02:19:34.920Z,19.50
2019-06-25T02:20:34.398Z,19.50
2019-06-25T02:21:34.435Z,19.40
2019-06-25T02:22:34.383Z,19.42
2019-06-25T02:23:34.382Z,19.49
2019-06-25T02:24:34.395Z,19.45
2019-06-25T02:25:34.697Z,19.38
2019-06-25T02:26:34.319Z,19.45
2019-06-25T02:27:34.331Z,19.27
2019-06-25T02:28:34.322Z,19.39
2019-06-25T02:29:34.328Z,19.27
2019-06-25T02:30:34.761Z,19.40
2019-06-25T02:31:34.298Z,19.40
2019-06-25T02:32:34.301Z,19.38
2019-06-25T02:33:34.255Z,19.35
2019-06-25T02:34:38.518Z,19.38
2019-06-25T02:35:34.705Z,19.35
2019-06-25T02:36:34.255Z,19.35
2019-06-25T02:37:34.226Z,19.34
2019-06-25T02:38:34.198Z,19.31
2019-06-25T02:39:34.222Z,19.30
2019-06-25T02:40:34.603Z,19.30
2019-06-25T02:41:34.161Z,19.31
2019-06-25T02:42:34.187Z,19.30
2019-06-25T02:43:34.169Z,19.39
2019-06-25T02:44:34.165Z,19.34
2019-06-25T02:45:34.572Z,19.32
2019-06-25T02:46:34.133Z,19.34
2019-06-25T02:47:34.124Z,19.34
2019-06-25T02:48:34.119Z,19.35
2019-06-25T02:49:34.130Z,19.32
2019-06-25T02:50:34.547Z,19.35
2019-06-25T02:51:34.091Z,19.31
2019-06-25T02:52:34.072Z,19.32
2019-06-25T02:53:34.055Z,19.34
2019-06-25T02:54:34.049Z,19.24
2019-06-25T02:55:34.417Z,19.27
2019-06-25T02:56:34.039Z,19.31
2019-06-25T02:57:34.045Z,19.27
2019-06-25T02:58:34.021Z,19.27
2019-06-25T02:59:33.987Z,19.27
2019-06-25T03:00:33.988Z,19.24
2019-06-25T03:01:34.525Z,19.34
2019-06-25T03:02:33.964Z,19.24
2019-06-25T03:03:33.964Z,19.25
2019-06-25T03:04:33.927Z,19.27
2019-06-25T03:05:33.933Z,19.23
2019-06-25T03:06:33.922Z,19.16
2019-06-25T03:07:34.342Z,19.16
2019-06-25T03:08:33.915Z,19.17
2019-06-25T03:09:33.882Z,19.20
2019-06-25T03:10:33.867Z,19.20
2019-06-25T03:11:33.881Z,19.15
2019-06-25T03:12:33.863Z,19.23
2019-06-25T03:13:34.249Z,19.16
2019-06-25T03:14:33.837Z,19.12
2019-06-25T03:15:33.821Z,19.15
2019-06-25T03:16:33.805Z,19.10
2019-06-25T03:17:33.797Z,19.17
2019-06-25T03:18:33.789Z,19.21
2019-06-25T03:19:34.049Z,19.16
2019-06-25T03:20:33.774Z,19.09
2019-06-25T03:21:33.761Z,19.10
2019-06-25T03:22:33.756Z,19.13
2019-06-25T03:23:33.749Z,19.17
2019-06-25T03:24:33.734Z,19.16
2019-06-25T03:25:34.077Z,19.13
2019-06-25T03:26:33.687Z,19.15
2019-06-25T03:27:33.721Z,19.15
2019-06-25T03:28:33.704Z,19.09
2019-06-25T03:29:34.105Z,19.15
2019-06-25T03:30:33.682Z,19.16
2019-06-25T03:32:01.743Z,19.13
2019-06-25T03:32:33.641Z,19.07
2019-06-25T03:33:33.779Z,19.10
2019-06-25T03:34:33.641Z,19.07
2019-06-25T03:35:33.609Z,19.13
2019-06-25T03:36:33.609Z,19.10
2019-06-25T03:37:33.953Z,19.09
2019-06-25T03:38:33.589Z,19.15
2019-06-25T03:39:33.556Z,19.12
2019-06-25T03:40:33.558Z,19.16
2019-06-25T03:41:33.534Z,19.07
2019-06-25T03:42:33.899Z,19.12
2019-06-25T03:43:33.524Z,19.15
2019-06-25T03:44:33.492Z,19.13
2019-06-25T03:45:33.498Z,19.09
2019-06-25T03:46:33.513Z,19.09
2019-06-25T03:47:33.919Z,19.07
2019-06-25T03:48:33.490Z,19.05
2019-06-25T03:49:33.464Z,19.15
2019-06-25T03:50:33.447Z,19.17
2019-06-25T03:51:33.445Z,19.07
2019-06-25T03:52:33.777Z,19.09
2019-06-25T03:53:33.417Z,19.07
2019-06-25T03:54:33.422Z,19.12
2019-06-25T03:55:33.543Z,19.12
2019-06-25T03:56:33.382Z,19.07
2019-06-25T03:57:33.784Z,19.09
2019-06-25T03:58:33.379Z,19.07
2019-06-25T03:59:33.365Z,19.10
2019-06-25T04:00:33.366Z,19.07
2019-06-25T04:01:33.325Z,19.05
2019-06-25T04:02:33.680Z,19.10
2019-06-25T04:03:33.451Z,19.07
2019-06-25T04:04:33.312Z,19.06
2019-06-25T04:05:33.301Z,19.07
2019-06-25T04:06:33.290Z,19.15
2019-06-25T04:07:33.623Z,19.05
2019-06-25T04:08:33.254Z,19.05
2019-06-25T04:09:33.263Z,19.07
2019-06-25T04:10:33.236Z,19.15
2019-06-25T04:11:33.223Z,19.13
2019-06-25T04:12:33.764Z,19.09
2019-06-25T04:13:33.213Z,19.02
2019-06-25T04:14:33.208Z,19.09
2019-06-25T04:15:33.172Z,19.07
2019-06-25T04:16:33.157Z,19.07
2019-06-25T04:17:33.537Z,19.02
2019-06-25T04:18:33.216Z,19.10
2019-06-25T04:19:33.134Z,19.09
2019-06-25T04:20:33.144Z,19.10
2019-06-25T04:21:33.128Z,19.07
2019-06-25T04:22:33.487Z,19.07
2019-06-25T04:23:33.108Z,18.97
2019-06-25T04:24:33.092Z,18.99
2019-06-25T04:25:33.055Z,18.93
2019-06-25T04:26:33.079Z,18.93
2019-06-25T04:27:33.056Z,18.93
2019-06-25T04:28:33.457Z,18.87
2019-06-25T04:29:33.041Z,18.90
2019-06-25T04:30:33.077Z,18.89
2019-06-25T04:31:33.025Z,18.79
2019-06-25T04:32:33.987Z,18.89
2019-06-25T04:33:32.989Z,18.90
2019-06-25T04:34:33.345Z,18.78
2019-06-25T04:35:32.989Z,18.74
2019-06-25T04:36:32.945Z,18.79
2019-06-25T04:37:32.951Z,18.78
2019-06-25T04:38:32.927Z,18.79
2019-06-25T04:39:32.939Z,18.89
2019-06-25T04:40:33.526Z,18.82
2019-06-25T04:41:32.920Z,18.86
2019-06-25T04:42:32.924Z,18.83
2019-06-25T04:43:32.904Z,18.79
2019-06-25T04:44:32.896Z,18.68
2019-06-25T04:45:32.850Z,18.68
2019-06-25T04:46:33.512Z,18.66
2019-06-25T04:47:32.863Z,18.62
2019-06-25T04:48:32.841Z,18.62
2019-06-25T04:49:32.820Z,18.68
2019-06-25T04:50:32.820Z,18.65
2019-06-25T04:51:32.795Z,18.65
2019-06-25T04:52:33.188Z,18.62
2019-06-25T04:53:32.755Z,18.69
2019-06-25T04:54:32.768Z,18.54
2019-06-25T04:55:32.746Z,18.64
2019-06-25T04:56:32.777Z,18.65
2019-06-25T04:57:32.731Z,18.60
2019-06-25T04:58:33.080Z,18.57
2019-06-25T04:59:32.699Z,18.53
2019-06-25T05:00:32.706Z,18.54
2019-06-25T05:01:32.694Z,18.51
2019-06-25T05:02:48.113Z,18.57
2019-06-25T05:03:32.662Z,18.56
2019-06-25T05:04:33.048Z,18.60
2019-06-25T05:05:32.653Z,18.54
2019-06-25T05:06:32.635Z,18.54
2019-06-25T05:07:32.641Z,18.56
2019-06-25T05:08:32.649Z,18.68
2019-06-25T05:09:32.595Z,18.59
2019-06-25T05:10:32.850Z,18.60
2019-06-25T05:11:32.565Z,18.68
2019-06-25T05:12:32.577Z,18.54
2019-06-25T05:13:32.544Z,18.68
2019-06-25T05:14:32.556Z,18.64
2019-06-25T05:15:33.106Z,18.62
2019-06-25T05:16:32.532Z,18.71
2019-06-25T05:17:32.524Z,18.69
2019-06-25T05:18:32.516Z,18.66
2019-06-25T05:19:32.500Z,18.66
2019-06-25T05:20:32.494Z,18.68
2019-06-25T05:21:32.871Z,18.64
2019-06-25T05:22:32.470Z,18.62
2019-06-25T05:23:32.442Z,18.65
2019-06-25T05:24:32.455Z,18.57
2019-06-25T05:25:32.431Z,18.54
2019-06-25T05:26:32.868Z,18.53
2019-06-25T05:27:32.402Z,18.59
2019-06-25T05:28:32.391Z,18.46
2019-06-25T05:29:32.386Z,18.50
2019-06-25T05:30:32.379Z,18.44
2019-06-25T05:31:32.700Z,18.50
2019-06-25T05:32:32.351Z,18.51
2019-06-25T05:33:32.344Z,18.47
2019-06-25T05:34:32.324Z,18.54
2019-06-25T05:35:32.346Z,18.41
2019-06-25T05:36:32.796Z,18.41
2019-06-25T05:37:32.288Z,18.46
2019-06-25T05:38:32.297Z,18.42
2019-06-25T05:39:32.283Z,18.47
2019-06-25T05:40:32.259Z,18.39
2019-06-25T05:41:32.630Z,18.50
2019-06-25T05:42:32.240Z,18.51
2019-06-25T05:43:32.238Z,18.50
2019-06-25T05:44:32.230Z,18.51
2019-06-25T05:45:32.208Z,18.47
2019-06-25T05:46:32.184Z,18.47
2019-06-25T05:47:32.693Z,18.54
2019-06-25T05:48:32.173Z,18.50
2019-06-25T05:49:32.208Z,18.56
2019-06-25T05:50:32.148Z,18.54
2019-06-25T05:51:32.158Z,18.47
2019-06-25T05:52:32.129Z,18.47
2019-06-25T05:53:32.470Z,18.54
2019-06-25T05:54:32.109Z,18.54
2019-06-25T05:55:32.094Z,18.47
2019-06-25T05:56:32.091Z,18.44
2019-06-25T05:57:32.065Z,18.46
2019-06-25T05:58:32.061Z,18.39
2019-06-25T05:59:32.408Z,18.47
2019-06-25T06:00:32.077Z,18.50
2019-06-25T06:01:32.032Z,18.41
2019-06-25T06:02:32.034Z,18.39
2019-06-25T06:03:32.013Z,18.32
2019-06-25T06:04:31.998Z,18.35
2019-06-25T06:05:32.397Z,18.23
2019-06-25T06:06:31.974Z,18.32
2019-06-25T06:07:31.976Z,18.35
2019-06-25T06:08:31.961Z,18.35
2019-06-25T06:09:31.935Z,18.38
2019-06-25T06:10:31.932Z,18.35
2019-06-25T06:11:32.511Z,18.35
2019-06-25T06:12:31.928Z,18.31
2019-06-25T06:13:31.915Z,18.41
2019-06-25T06:14:31.877Z,18.28
2019-06-25T06:15:31.868Z,18.32
2019-06-25T06:16:31.860Z,18.34
2019-06-25T06:17:32.209Z,18.35
2019-06-25T06:18:31.862Z,18.34
2019-06-25T06:19:31.884Z,18.34
2019-06-25T06:20:31.840Z,18.31
2019-06-25T06:21:31.794Z,18.34
2019-06-25T06:22:31.797Z,18.39
2019-06-25T06:23:32.130Z,18.32
2019-06-25T06:24:31.761Z,18.36
2019-06-25T06:25:31.760Z,18.35
2019-06-25T06:26:31.725Z,18.34
2019-06-25T06:27:31.745Z,18.38
2019-06-25T06:28:31.714Z,18.38
2019-06-25T06:29:32.362Z,18.34
2019-06-25T06:30:31.780Z,18.31
2019-06-25T06:31:31.706Z,18.38
2019-06-25T06:32:31.670Z,18.46
2019-06-25T06:33:36.506Z,18.36
2019-06-25T06:34:31.643Z,18.28
2019-06-25T06:35:32.162Z,18.35
2019-06-25T06:36:31.676Z,18.32
2019-06-25T06:37:31.620Z,18.36
2019-06-25T06:38:31.656Z,18.38
2019-06-25T06:39:31.618Z,18.23
2019-06-25T06:40:31.586Z,18.35
2019-06-25T06:41:31.998Z,18.31
2019-06-25T06:42:31.581Z,18.21
2019-06-25T06:43:31.551Z,18.31
2019-06-25T06:44:31.562Z,18.31
2019-06-25T06:45:31.540Z,18.29
2019-06-25T06:46:31.933Z,18.26
2019-06-25T06:47:31.533Z,18.34
2019-06-25T06:48:31.500Z,18.32
2019-06-25T06:49:31.471Z,18.31
2019-06-25T06:50:31.495Z,18.28
2019-06-25T06:51:31.907Z,18.23
2019-06-25T06:52:31.460Z,18.20
2019-06-25T06:53:31.450Z,18.35
2019-06-25T06:54:31.438Z,18.31
2019-06-25T06:55:31.426Z,18.31
2019-06-25T06:56:31.896Z,18.23
2019-06-25T06:57:31.401Z,18.23
2019-06-25T06:58:31.403Z,18.26
2019-06-25T06:59:31.380Z,18.26
2019-06-25T07:00:31.347Z,18.20
2019-06-25T07:01:31.362Z,18.25
2019-06-25T07:02:31.862Z,18.26
2019-06-25T07:03:31.344Z,18.21
2019-06-25T07:04:31.340Z,18.19
2019-06-25T07:05:31.324Z,18.20
2019-06-25T07:06:31.329Z,18.19
2019-06-25T07:07:31.300Z,18.23
2019-06-25T07:08:31.697Z,18.23
2019-06-25T07:09:31.264Z,18.23
2019-06-25T07:10:31.267Z,18.20
2019-06-25T07:11:31.230Z,18.20
2019-06-25T07:12:31.246Z,18.20
2019-06-25T07:13:31.211Z,18.19
2019-06-25T07:14:31.715Z,18.19
2019-06-25T07:15:31.181Z,18.11
2019-06-25T07:16:31.191Z,18.19
2019-06-25T07:17:31.183Z,18.23
2019-06-25T07:18:31.169Z,18.19
2019-06-25T07:19:31.390Z,18.19
2019-06-25T07:20:33.898Z,18.17
2019-06-25T07:21:31.145Z,18.19
2019-06-25T07:22:31.115Z,18.19
2019-06-25T07:23:31.104Z,18.19
2019-06-25T07:24:31.092Z,18.23
2019-06-25T07:25:31.435Z,18.20
2019-06-25T07:26:31.071Z,18.13
2019-06-25T07:27:32.581Z,18.19
2019-06-25T07:28:31.046Z,18.23
2019-06-25T07:29:31.037Z,18.19
2019-06-25T07:30:31.035Z,18.13
2019-06-25T07:31:31.671Z,18.11
2019-06-25T07:32:31.015Z,18.13
2019-06-25T07:33:33.858Z,18.13
2019-06-25T07:34:30.976Z,18.17
2019-06-25T07:35:30.971Z,18.13
2019-06-25T07:36:30.962Z,18.14
2019-06-25T07:37:31.422Z,18.11
2019-06-25T07:38:30.942Z,18.11
2019-06-25T07:39:30.904Z,18.04
2019-06-25T07:40:30.911Z,18.09
2019-06-25T07:41:30.900Z,18.02
2019-06-25T07:42:30.893Z,18.07
2019-06-25T07:43:31.386Z,17.99
2019-06-25T07:44:30.884Z,18.04
2019-06-25T07:45:30.858Z,18.11
2019-06-25T07:46:30.836Z,18.04
2019-06-25T07:47:32.379Z,18.01
2019-06-25T07:48:30.813Z,18.04
2019-06-25T07:49:31.401Z,18.11
2019-06-25T07:50:30.788Z,18.07
2019-06-25T07:51:30.799Z,18.05
2019-06-25T07:52:30.783Z,18.10
2019-06-25T07:53:30.777Z,18.04
2019-06-25T07:54:30.737Z,18.05
2019-06-25T07:55:31.254Z,17.92
2019-06-25T07:56:36.631Z,18.02
2019-06-25T07:57:30.702Z,18.02
2019-06-25T07:58:30.731Z,17.95
2019-06-25T07:59:30.717Z,17.87
2019-06-25T08:00:30.678Z,17.98
2019-06-25T08:01:31.064Z,18.01
2019-06-25T08:02:30.649Z,18.01
2019-06-25T08:03:30.640Z,17.89
2019-06-25T08:04:30.641Z,17.91
2019-06-25T08:05:30.597Z,17.96
2019-06-25T08:06:31.061Z,17.95
2019-06-25T08:07:30.699Z,17.96
2019-06-25T08:08:30.596Z,17.89
2019-06-25T08:09:30.679Z,17.99
2019-06-25T08:10:30.551Z,17.98
2019-06-25T08:11:30.551Z,17.99
2019-06-25T08:12:31.149Z,17.96
2019-06-25T08:13:30.531Z,18.01
2019-06-25T08:14:30.516Z,18.02
2019-06-25T08:15:30.532Z,18.01
2019-06-25T08:16:30.493Z,18.01
2019-06-25T08:17:30.485Z,17.96
2019-06-25T08:18:30.857Z,17.98
2019-06-25T08:19:30.464Z,18.05
2019-06-25T08:20:30.443Z,17.96
2019-06-25T08:21:30.441Z,18.02
2019-06-25T08:22:30.425Z,18.02
2019-06-25T08:23:30.416Z,17.96
2019-06-25T08:24:30.742Z,18.02
2019-06-25T08:25:30.430Z,17.99
2019-06-25T08:26:30.377Z,17.98
2019-06-25T08:27:30.379Z,17.98
2019-06-25T08:28:30.341Z,17.98
2019-06-25T08:29:30.355Z,18.09
2019-06-25T08:30:30.919Z,17.96
2019-06-25T08:31:30.328Z,18.05
2019-06-25T08:32:30.309Z,17.99
2019-06-25T08:33:30.297Z,18.02
2019-06-25T08:34:41.249Z,17.98
2019-06-25T08:35:30.271Z,18.01
2019-06-25T08:36:30.699Z,17.98
2019-06-25T08:37:30.248Z,17.96
2019-06-25T08:38:30.260Z,17.91
2019-06-25T08:39:30.227Z,17.84
2019-06-25T08:40:30.214Z,17.86
2019-06-25T08:41:30.209Z,17.94
2019-06-25T08:42:30.529Z,17.84
2019-06-25T08:43:30.552Z,17.86
2019-06-25T08:44:30.170Z,17.83
2019-06-25T08:45:30.176Z,17.77
2019-06-25T08:46:30.122Z,17.84
2019-06-25T08:47:30.133Z,17.77
2019-06-25T08:48:30.483Z,17.81
2019-06-25T08:49:30.182Z,17.77
2019-06-25T08:50:30.102Z,17.76
2019-06-25T08:51:30.076Z,17.74
2019-06-25T08:52:30.077Z,17.71
2019-06-25T08:53:30.064Z,17.86
2019-06-25T08:54:30.656Z,17.77
2019-06-25T08:55:30.039Z,17.74
2019-06-25T08:56:30.050Z,17.77
2019-06-25T08:57:30.016Z,17.70
2019-06-25T08:58:30.024Z,17.73
2019-06-25T08:59:29.971Z,17.74
2019-06-25T09:00:30.387Z,17.74
2019-06-25T09:01:29.942Z,17.70
2019-06-25T09:02:29.969Z,17.76
2019-06-25T09:03:29.951Z,17.74
2019-06-25T09:04:29.947Z,17.76
2019-06-25T09:05:29.914Z,17.68
2019-06-25T09:06:30.518Z,17.66
2019-06-25T09:07:29.903Z,17.71
2019-06-25T09:08:29.895Z,17.63
2019-06-25T09:09:29.893Z,17.68
2019-06-25T09:10:29.866Z,17.71
2019-06-25T09:11:29.858Z,17.71
2019-06-25T09:12:30.242Z,17.58
2019-06-25T09:13:29.827Z,17.68
2019-06-25T09:14:29.835Z,17.68
2019-06-25T09:15:29.839Z,17.68
2019-06-25T09:16:29.777Z,17.73
2019-06-25T09:17:29.794Z,17.70
2019-06-25T09:18:30.126Z,17.68
2019-06-25T09:19:29.766Z,17.63
2019-06-25T09:20:29.791Z,17.77
2019-06-25T09:21:29.734Z,17.76
2019-06-25T09:22:29.713Z,17.70
2019-06-25T09:23:30.394Z,17.57
2019-06-25T09:24:29.721Z,17.58
2019-06-25T09:25:29.673Z,17.66
2019-06-25T09:26:29.688Z,17.74
2019-06-25T09:27:29.677Z,17.71
2019-06-25T09:28:29.639Z,17.73
2019-06-25T09:29:29.988Z,17.66
2019-06-25T09:30:29.613Z,17.57
2019-06-25T09:31:29.631Z,17.70
2019-06-25T09:32:29.633Z,17.73
2019-06-25T09:33:29.610Z,17.76
2019-06-25T09:34:29.583Z,17.71
2019-06-25T09:35:30.102Z,17.68
2019-06-25T09:36:29.572Z,17.70
2019-06-25T09:37:29.565Z,17.79
2019-06-25T09:38:29.535Z,17.83
2019-06-25T09:39:29.511Z,17.86
2019-06-25T09:40:29.492Z,17.73
2019-06-25T09:41:29.916Z,17.73
2019-06-25T09:42:29.471Z,17.87
2019-06-25T09:43:29.490Z,17.83
2019-06-25T09:44:30.290Z,17.77
2019-06-25T09:45:29.451Z,17.74
2019-06-25T09:46:29.895Z,17.86
2019-06-25T09:47:29.419Z,17.80
2019-06-25T09:48:29.408Z,17.83
2019-06-25T09:49:29.409Z,17.77
2019-06-25T09:50:32.578Z,17.84
2019-06-25T09:51:29.432Z,17.73
2019-06-25T09:52:29.730Z,17.81
2019-06-25T09:53:29.360Z,17.84
2019-06-25T09:54:29.349Z,17.74
2019-06-25T09:55:29.341Z,17.84
2019-06-25T09:56:30.403Z,17.86
2019-06-25T09:57:29.832Z,17.83
2019-06-25T09:58:29.614Z,17.86
2019-06-25T09:59:29.283Z,17.92
2019-06-25T10:00:29.287Z,17.81
2019-06-25T10:01:44.275Z,17.94
2019-06-25T10:02:29.254Z,17.89
2019-06-25T10:03:29.702Z,17.89
2019-06-25T10:04:29.223Z,17.84
2019-06-25T10:05:31.952Z,17.92
2019-06-25T10:06:29.260Z,17.92
2019-06-25T10:07:29.173Z,17.89
2019-06-25T10:08:29.181Z,17.87
2019-06-25T10:09:29.626Z,17.94
2019-06-25T10:10:29.163Z,18.01
2019-06-25T10:11:29.145Z,17.95
2019-06-25T10:12:29.146Z,17.98
2019-06-25T10:13:29.177Z,17.87
2019-06-25T10:14:29.116Z,17.95
2019-06-25T10:15:29.491Z,17.96
2019-06-25T10:16:29.103Z,17.99
2019-06-25T10:17:29.061Z,18.01
2019-06-25T10:18:43.417Z,18.07
2019-06-25T10:19:29.067Z,17.98
2019-06-25T10:20:29.044Z,18.10
2019-06-25T10:21:29.530Z,18.09
2019-06-25T10:22:28.999Z,18.13
2019-06-25T10:23:29.004Z,18.13
2019-06-25T10:24:28.993Z,18.13
2019-06-25T10:25:29.000Z,18.14
2019-06-25T10:26:29.056Z,18.17
2019-06-25T10:27:29.369Z,18.19
2019-06-25T10:28:35.603Z,18.26
2019-06-25T10:29:28.928Z,18.21
2019-06-25T10:30:28.963Z,18.23
2019-06-25T10:31:28.909Z,18.32
2019-06-25T10:32:28.905Z,18.34
2019-06-25T10:33:29.356Z,18.36
2019-06-25T10:34:28.871Z,18.28
2019-06-25T10:35:28.875Z,18.34
2019-06-25T10:36:28.842Z,18.38
2019-06-25T10:37:28.838Z,18.39
2019-06-25T10:38:28.832Z,18.34
2019-06-25T10:39:29.162Z,18.38
2019-06-25T10:40:28.793Z,18.39
2019-06-25T10:41:28.807Z,18.47
2019-06-25T10:42:28.789Z,18.44
2019-06-25T10:43:28.835Z,18.50
2019-06-25T10:44:29.221Z,18.49
2019-06-25T10:45:28.755Z,18.54
2019-06-25T10:46:28.747Z,18.56
2019-06-25T10:47:28.757Z,18.53
2019-06-25T10:48:28.701Z,18.64
2019-06-25T10:49:28.719Z,18.66
2019-06-25T10:50:29.122Z,18.66
2019-06-25T10:51:28.692Z,18.71
2019-06-25T10:52:28.694Z,18.69
2019-06-25T10:53:28.681Z,18.76
2019-06-25T10:54:28.648Z,18.78
2019-06-25T10:55:29.240Z,18.75
2019-06-25T10:56:31.128Z,18.83
2019-06-25T10:57:28.627Z,18.76
2019-06-25T10:58:28.616Z,18.82
2019-06-25T10:59:28.580Z,18.91
2019-06-25T11:00:28.584Z,18.87
2019-06-25T11:01:29.017Z,18.96
2019-06-25T11:02:29.384Z,18.99
2019-06-25T11:03:28.551Z,18.93
2019-06-25T11:04:28.538Z,19.06
2019-06-25T11:05:28.557Z,19.10
2019-06-25T11:06:28.543Z,19.12
2019-06-25T11:07:28.514Z,19.09
2019-06-25T11:08:28.495Z,19.15
2019-06-25T11:09:28.487Z,19.09
2019-06-25T11:10:28.491Z,19.16
2019-06-25T11:11:28.511Z,19.13
2019-06-25T11:12:28.459Z,19.20
2019-06-25T11:13:28.437Z,19.15
2019-06-25T11:14:28.438Z,19.21
2019-06-25T11:15:28.442Z,19.24
2019-06-25T11:16:28.417Z,19.25
2019-06-25T11:17:28.403Z,19.28
2019-06-25T11:18:28.392Z,19.31
2019-06-25T11:19:28.362Z,19.30
2019-06-25T11:20:28.365Z,19.35
2019-06-25T11:21:28.401Z,19.32
2019-06-25T11:22:28.339Z,19.34
2019-06-25T11:23:28.342Z,19.35
2019-06-25T11:24:28.320Z,19.45
2019-06-25T11:25:28.322Z,19.45
2019-06-25T11:26:28.290Z,19.43
2019-06-25T11:27:28.293Z,19.50
2019-06-25T11:28:28.286Z,19.46
2019-06-25T11:29:28.273Z,19.53
2019-06-25T11:30:28.264Z,19.50
2019-06-25T11:31:28.258Z,19.57
2019-06-25T11:32:28.233Z,19.65
2019-06-25T11:33:28.224Z,19.67
2019-06-25T11:34:28.219Z,19.65
2019-06-25T11:35:28.649Z,19.71
2019-06-25T11:36:28.185Z,19.65
2019-06-25T11:37:28.199Z,19.79
2019-06-25T11:38:28.156Z,19.95
2019-06-25T11:39:28.146Z,20.10
2019-06-25T11:40:28.151Z,20.23
2019-06-25T11:41:28.558Z,20.27
2019-06-25T11:42:28.127Z,20.57
2019-06-25T11:43:42.966Z,20.51
2019-06-25T11:44:28.106Z,20.72
2019-06-25T11:45:28.105Z,20.87
2019-06-25T11:46:28.103Z,21.01
2019-06-25T11:47:28.538Z,21.06
2019-06-25T11:48:28.087Z,21.24
2019-06-25T11:49:28.067Z,21.34
2019-06-25T11:50:28.086Z,21.49
2019-06-25T11:51:28.030Z,21.59
2019-06-25T11:52:28.037Z,21.66
2019-06-25T11:53:28.351Z,21.79
2019-06-25T11:54:28.018Z,21.75
2019-06-25T11:55:28.113Z,21.89
2019-06-25T11:56:28.035Z,21.91
2019-06-25T11:57:27.990Z,21.96
2019-06-25T11:58:27.978Z,22.02
2019-06-25T11:59:28.429Z,22.17
2019-06-25T12:00:27.954Z,22.09
2019-06-25T12:01:27.968Z,22.06
2019-06-25T12:02:27.980Z,22.05
2019-06-25T12:03:27.928Z,22.12
2019-06-25T12:04:27.939Z,22.19
2019-06-25T12:05:27.917Z,22.29
2019-06-25T12:06:34.934Z,22.30
2019-06-25T12:07:27.928Z,22.39
2019-06-25T12:08:27.882Z,22.41
2019-06-25T12:09:27.885Z,22.27
2019-06-25T12:10:27.871Z,22.38
2019-06-25T12:11:27.867Z,22.46
2019-06-25T12:12:27.874Z,22.41
2019-06-25T12:13:27.858Z,22.48
2019-06-25T12:14:27.850Z,22.48
2019-06-25T12:15:27.852Z,22.64
2019-06-25T12:16:27.824Z,22.63
2019-06-25T12:17:27.831Z,22.94
2019-06-25T12:18:27.820Z,23.00
2019-06-25T12:19:27.798Z,22.93
2019-06-25T12:20:27.801Z,23.00
2019-06-25T12:21:27.776Z,23.03
2019-06-25T12:22:27.788Z,23.14
2019-06-25T12:23:27.766Z,23.18
2019-06-25T12:24:27.780Z,23.16
2019-06-25T12:25:27.772Z,23.18
2019-06-25T12:26:27.756Z,23.35
2019-06-25T12:27:27.741Z,23.31
2019-06-25T12:28:27.722Z,23.25
2019-06-25T12:29:27.726Z,23.34
2019-06-25T12:30:27.716Z,23.37
2019-06-25T12:31:27.732Z,23.41
2019-06-25T12:32:27.697Z,23.29
2019-06-25T12:33:27.699Z,23.41
2019-06-25T12:34:27.669Z,23.45
2019-06-25T12:35:27.721Z,23.47
2019-06-25T12:36:27.682Z,23.52
2019-06-25T12:37:27.659Z,23.44
2019-06-25T12:38:27.661Z,23.41
2019-06-25T12:39:27.642Z,23.44
2019-06-25T12:40:27.678Z,23.44
2019-06-25T12:41:27.635Z,23.47
2019-06-25T12:42:27.657Z,23.67
2019-06-25T12:43:27.629Z,23.74
2019-06-25T12:44:27.657Z,23.69
2019-06-25T12:45:27.615Z,23.69
2019-06-25T12:46:27.600Z,23.71
2019-06-25T12:47:27.602Z,23.87
2019-06-25T12:48:27.597Z,23.94
2019-06-25T12:49:27.593Z,24.00
2019-06-25T12:50:27.571Z,23.96
2019-06-25T12:51:27.561Z,24.06
2019-06-25T12:52:27.553Z,24.16